Time;durP1;ratioP1;P1;durP2;ratioP2;P2;SDS_P1;SDS_P2;PMS_P1;PMS_P2;Temp;Humidity;BMP_temperature;BMP_pressure;BME280_temperature;BME280_humidity;BME280_pressure;Samples;Min_cycle;Max_cycle;Signal;HPM_P1;HPM_P2
2022/06/08 00:00:28;;;;;;;0.40;0.40;;;;;;;10.93;64.68;99022.50;4842859;29;20155;-87
2022/06/08 00:02:59;;;;;;;0.40;0.40;;;;;;;10.95;65.02;99019.56;4843904;29;20148;-86
2022/06/08 00:05:27;;;;;;;0.40;0.40;;;;;;;10.93;65.02;99014.41;4842095;29;20054;-86
2022/06/08 00:07:54;;;;;;;0.40;0.40;;;;;;;10.96;65.07;99016.63;4859458;29;20057;-87
2022/06/08 00:10:21;;;;;;;0.40;0.40;;;;;;;10.95;65.30;99020.38;4844676;29;20153;-87
2022/06/08 00:12:49;;;;;;;0.35;0.35;;;;;;;10.95;65.52;99017.69;4842414;29;20057;-85
2022/06/08 00:15:16;;;;;;;0.40;0.40;;;;;;;10.92;65.17;98996.56;4843729;29;20053;-86
2022/06/08 00:17:43;;;;;;;0.40;0.40;;;;;;;11.07;64.70;99023.00;4843330;29;20103;-86
2022/06/08 00:20:11;;;;;;;0.35;0.35;;;;;;;11.06;64.79;99015.94;4843301;29;20062;-85
2022/06/08 00:22:39;;;;;;;0.38;0.38;;;;;;;11.13;63.10;99004.97;4843871;29;20054;-86
2022/06/08 00:25:07;;;;;;;0.30;0.30;;;;;;;11.19;63.39;99012.06;4843970;29;20103;-86
2022/06/08 00:27:34;;;;;;;0.40;0.40;;;;;;;11.21;63.44;99010.75;4843338;29;20110;-86
2022/06/08 00:30:02;;;;;;;0.40;0.40;;;;;;;11.21;63.01;99010.75;4844495;29;20061;-85
2022/06/08 00:32:31;;;;;;;0.40;0.40;;;;;;;11.25;62.50;99006.50;4852829;29;20050;-87
2022/06/08 00:35:00;;;;;;;0.40;0.40;;;;;;;11.18;63.01;98999.66;4855365;29;20034;-86
2022/06/08 00:37:29;;;;;;;0.35;0.35;;;;;;;11.11;62.44;98994.41;4855492;29;20068;-87
2022/06/08 00:39:56;;;;;;;0.40;0.40;;;;;;;11.12;62.23;98998.75;4831177;29;20050;-85
2022/06/08 00:42:24;;;;;;;0.40;0.40;;;;;;;11.17;63.28;99000.72;4832132;29;20103;-85
2022/06/08 00:44:59;;;;;;;0.32;0.32;;;;;;;11.22;63.69;99007.00;4836062;29;20058;-86
2022/06/08 00:47:58;;;;;;;0.40;0.40;;;;;;;11.25;63.36;99001.09;4830307;29;20058;-87
2022/06/08 00:50:36;;;;;;;0.40;0.40;;;;;;;11.25;62.85;99000.28;4837663;29;20073;-86
2022/06/08 00:53:03;;;;;;;0.40;0.40;;;;;;;11.26;62.93;99010.81;4823075;29;20062;-86
2022/06/08 00:55:32;;;;;;;0.40;0.40;;;;;;;11.28;62.79;99008.69;4823596;29;20077;-86
2022/06/08 00:58:05;;;;;;;0.40;0.40;;;;;;;11.25;63.00;98990.28;4823221;29;20074;-87
2022/06/08 01:00:38;;;;;;;0.30;0.30;;;;;;;11.36;62.50;98998.53;4838196;29;20089;-87
2022/06/08 01:03:08;;;;;;;0.30;0.30;;;;;;;11.40;63.17;98996.97;4822844;29;20046;-87
2022/06/08 01:05:46;;;;;;;0.40;0.40;;;;;;;11.47;62.49;98992.22;4823257;29;20078;-86
2022/06/08 01:08:25;;;;;;;0.40;0.40;;;;;;;11.53;62.92;99002.00;4823040;29;20085;-86
2022/06/08 01:10:56;;;;;;;0.40;0.40;;;;;;;11.49;61.68;98995.47;4822636;29;20070;-87
2022/06/08 01:13:28;;;;;;;0.32;0.32;;;;;;;11.58;62.28;99001.25;4823941;29;20546;-86
2022/06/08 01:15:55;;;;;;;0.40;0.40;;;;;;;11.59;61.34;99001.00;4822868;29;20055;-87
2022/06/08 01:18:23;;;;;;;0.38;0.38;;;;;;;11.63;61.83;99004.84;4825018;29;20058;-86
2022/06/08 01:20:54;;;;;;;0.30;0.30;;;;;;;11.65;61.27;99013.53;4840166;29;20046;-86
2022/06/08 01:23:29;;;;;;;0.40;0.40;;;;;;;11.61;62.53;99003.47;4822780;29;20122;-86
2022/06/08 01:25:57;;;;;;;0.40;0.40;;;;;;;11.67;62.03;99016.81;4822613;29;20055;-86
2022/06/08 01:28:38;;;;;;;0.30;0.30;;;;;;;11.65;61.72;99010.00;4824192;29;20046;-87
2022/06/08 01:31:13;;;;;;;0.40;0.40;;;;;;;11.62;61.09;99019.44;4822578;29;20061;-85
2022/06/08 01:33:41;;;;;;;;;;;;;;;11.62;61.08;99013.19;4838493;29;20060;-84
2022/06/08 01:36:25;;;;;;;0.40;0.40;;;;;;;11.61;60.58;99011.56;4823643;29;19934;-87
2022/06/08 01:39:16;;;;;;;0.40;0.40;;;;;;;11.57;61.93;99016.69;4822979;29;20054;-85
2022/06/08 01:42:02;;;;;;;0.40;0.40;;;;;;;11.63;62.39;99017.56;4812139;29;20575;-83
2022/06/08 01:44:38;;;;;;;0.40;0.40;;;;;;;11.77;61.47;99015.28;4825173;29;20110;-86
2022/06/08 01:47:24;;;;;;;0.40;0.40;;;;;;;11.86;62.38;99019.19;4824991;29;20057;-86
2022/06/08 01:50:04;;;;;;;0.40;0.40;;;;;;;11.83;62.75;99014.28;4807279;29;20061;-86
2022/06/08 01:52:53;;;;;;;0.40;0.40;;;;;;;11.87;61.42;99018.13;4822878;29;20058;-87
2022/06/08 01:55:28;;;;;;;0.40;0.40;;;;;;;11.85;60.03;99021.06;4838400;29;20054;-87
2022/06/08 01:58:05;;;;;;;0.40;0.40;;;;;;;11.92;61.30;99024.44;4808058;29;20084;-85
2022/06/08 02:00:35;;;;;;;0.38;0.38;;;;;;;11.90;63.11;99023.88;4837256;29;20102;-86
2022/06/08 02:03:16;;;;;;;0.40;0.40;;;;;;;11.90;63.37;99025.72;4837398;29;20050;-86
2022/06/08 02:05:53;;;;;;;0.40;0.40;;;;;;;11.88;63.87;99030.59;4822297;29;20054;-85
2022/06/08 02:09:00;;;;;;;0.40;0.40;;;;;;;11.86;64.26;99030.84;4824695;29;20468;-87
2022/06/08 02:11:48;;;;;;;0.40;0.40;;;;;;;11.83;64.14;99030.50;4837329;29;20141;-87
2022/06/08 02:14:25;;;;;;;0.40;0.40;;;;;;;11.85;63.43;99029.19;4822996;29;20058;-87
2022/06/08 02:16:55;;;;;;;0.40;0.40;;;;;;;11.93;63.18;99026.06;4820004;29;20117;-87
2022/06/08 02:19:29;;;;;;;0.40;0.40;;;;;;;11.92;63.43;99026.31;4855629;29;20064;-86
2022/06/08 02:22:09;;;;;;;0.40;0.40;;;;;;;11.95;63.23;99023.13;4808599;29;20054;-86
2022/06/08 02:24:49;;;;;;;0.40;0.40;;;;;;;11.95;63.49;99028.53;4816424;29;20141;-87
2022/06/08 02:27:24;;;;;;;0.40;0.40;;;;;;;12.02;63.56;99034.53;4810745;29;20052;-89
2022/06/08 02:30:18;;;;;;;0.40;0.40;;;;;;;12.10;63.41;99026.00;4835219;29;20058;-85
2022/06/08 02:36:06;;;;;;;0.40;0.40;;;;;;;12.18;63.05;99030.13;4824670;29;20049;-86
2022/06/08 02:38:36;;;;;;;0.40;0.40;;;;;;;12.18;62.94;99030.13;4816024;29;20050;-85
2022/06/08 02:41:07;;;;;;;0.40;0.40;;;;;;;12.29;62.09;99023.75;4829071;29;20050;-85
2022/06/08 02:43:58;;;;;;;0.30;0.30;;;;;;;12.33;62.24;99019.47;4801236;29;20109;-84
2022/06/08 02:46:49;;;;;;;0.40;0.40;;;;;;;12.38;62.74;99032.19;4839751;29;20049;-83
2022/06/08 02:49:18;;;;;;;0.40;0.40;;;;;;;12.58;61.98;99037.00;4838722;29;20057;-86
2022/06/08 02:51:48;;;;;;;0.40;0.40;;;;;;;12.76;61.88;99038.50;4844462;29;20066;-86
2022/06/08 02:54:20;;;;;;;0.40;0.40;;;;;;;12.90;61.65;99039.72;4830967;29;20062;-86
2022/06/08 02:57:16;;;;;;;0.40;0.40;;;;;;;13.16;61.50;99046.13;4830862;29;20066;-87
2022/06/08 03:00:10;;;;;;;0.40;0.40;;;;;;;13.30;60.51;99041.13;4823683;29;20065;-87
2022/06/08 03:02:50;;;;;;;0.40;0.40;;;;;;;13.37;60.48;99043.63;4794791;29;20260;-88
2022/06/08 03:05:25;;;;;;;0.30;0.30;;;;;;;13.35;60.04;99046.56;4837959;29;20078;-89
2022/06/08 03:08:19;;;;;;;0.40;0.40;;;;;;;13.31;59.95;99039.22;4839426;29;20054;-88
2022/06/08 03:10:48;;;;;;;0.40;0.40;;;;;;;13.41;59.36;99044.72;4807892;29;20126;-86
2022/06/08 03:13:26;;;;;;;0.40;0.40;;;;;;;13.52;59.25;99045.56;4826286;29;20514;-84
2022/06/08 03:15:59;;;;;;;0.40;0.40;;;;;;;13.63;59.56;99039.94;4856590;29;20148;-86
2022/06/08 03:18:27;;;;;;;0.40;0.40;;;;;;;13.70;59.37;99044.31;4842343;29;20145;-82
2022/06/08 03:20:57;;;;;;;0.40;0.40;;;;;;;13.72;58.53;99039.44;4827321;29;20057;-83
2022/06/08 03:23:28;;;;;;;0.40;0.40;;;;;;;13.76;58.90;99035.13;4842841;29;20049;-83
2022/06/08 03:25:56;;;;;;;0.40;0.40;;;;;;;13.82;58.57;99040.31;4797483;29;20058;-83
2022/06/08 03:28:23;;;;;;;0.40;0.40;;;;;;;13.95;58.78;99049.03;4843003;29;20093;-85
2022/06/08 03:30:54;;;;;;;0.38;0.38;;;;;;;14.12;58.02;99044.22;4842345;29;20077;-85
2022/06/08 03:33:21;;;;;;;0.40;0.40;;;;;;;14.33;56.59;99045.09;4843926;29;20058;-84
2022/06/08 03:35:48;;;;;;;0.40;0.40;;;;;;;14.57;54.60;99053.59;4842656;29;20510;-87
2022/06/08 03:38:19;;;;;;;0.40;0.40;;;;;;;14.76;52.35;99050.34;4858309;29;20073;-85
2022/06/08 03:40:47;;;;;;;0.30;0.30;;;;;;;14.93;52.16;99045.47;4827436;29;20056;-83
2022/06/08 03:43:16;;;;;;;0.40;0.40;;;;;;;15.05;51.25;99046.00;4842289;29;20142;-83
2022/06/08 03:45:45;;;;;;;0.30;0.30;;;;;;;15.15;50.54;99058.78;4844432;29;20486;-86
2022/06/08 03:48:13;;;;;;;0.40;0.40;;;;;;;15.26;50.15;99056.84;4826993;29;20053;-85
2022/06/08 03:50:42;;;;;;;0.40;0.40;;;;;;;15.31;50.01;99040.53;4846006;29;20130;-88
2022/06/08 03:53:33;;;;;;;0.33;0.33;;;;;;;15.44;50.21;99048.09;4494751;29;10000452;-84
2022/06/08 03:56:02;;;;;;;0.40;0.40;;;;;;;15.57;50.24;99049.44;4839728;29;20050;-86
2022/06/08 03:58:31;;;;;;;0.30;0.30;;;;;;;15.58;50.00;99042.94;4842778;29;20069;-85
2022/06/08 04:01:01;;;;;;;0.30;0.30;;;;;;;15.49;50.58;99052.72;4855734;29;20866;-81
2022/06/08 04:03:28;;;;;;;0.40;0.40;;;;;;;15.52;51.22;99055.72;4853134;29;20091;-83
2022/06/08 04:08:59;;;;;;;0.30;0.30;;;;;;;15.79;50.92;99049.13;4834693;29;20070;-85
2022/06/08 04:11:31;;;;;;;0.40;0.40;;;;;;;15.89;50.37;99056.47;4812708;29;20109;-87
2022/06/08 04:14:00;;;;;;;0.40;0.40;;;;;;;15.90;49.84;99041.75;4758587;29;20088;-84
2022/06/08 04:16:28;;;;;;;0.35;0.35;;;;;;;15.92;48.69;99039.56;4808870;29;20061;-86
2022/06/08 04:19:01;;;;;;;0.30;0.30;;;;;;;16.04;48.11;99057.19;4812779;29;20061;-84
2022/06/08 04:21:32;;;;;;;0.30;0.30;;;;;;;16.10;48.22;99057.97;4811528;29;20055;-86
2022/06/08 04:24:06;;;;;;;0.30;0.30;;;;;;;16.12;48.29;99055.00;4808494;29;20534;-86
2022/06/08 04:26:34;;;;;;;0.40;0.40;;;;;;;16.22;48.11;99057.66;4806961;29;20047;-86
2022/06/08 04:29:10;;;;;;;0.40;0.40;;;;;;;16.31;48.04;99057.91;4806326;29;20124;-85
2022/06/08 04:31:39;;;;;;;0.30;0.30;;;;;;;16.49;48.08;99059.16;4805499;29;20142;-86
2022/06/08 04:34:17;;;;;;;0.40;0.40;;;;;;;16.38;47.52;99031.16;4985252;24;20059;-85
2022/06/08 04:36:45;;;;;;;0.30;0.30;;;;;;;16.60;47.14;99055.25;4814811;29;20588;-87
2022/06/08 04:39:14;;;;;;;0.30;0.30;;;;;;;16.60;47.20;99060.72;4827559;29;20058;-84
2022/06/08 04:41:49;;;;;;;0.30;0.30;;;;;;;16.73;47.47;99049.16;4792018;29;20066;-85
2022/06/08 04:44:17;;;;;;;0.30;0.30;;;;;;;16.88;46.89;99046.34;4806049;29;20050;-85
2022/06/08 04:46:45;;;;;;;0.30;0.30;;;;;;;16.98;47.12;99041.94;4809483;29;20319;-85
2022/06/08 04:50:24;;;;;;;0.30;0.30;;;;;;;17.16;46.61;99043.94;4823910;29;20094;-86
2022/06/08 04:52:51;;;;;;;0.30;0.30;;;;;;;17.12;45.59;99042.91;4836566;29;20069;-85
2022/06/08 04:55:20;;;;;;;0.30;0.30;;;;;;;17.22;45.99;99036.53;4834257;29;20066;-87
2022/06/08 04:57:48;;;;;;;0.30;0.30;;;;;;;17.23;45.87;99021.78;4828166;29;20142;-86
2022/06/08 05:00:18;;;;;;;0.30;0.30;;;;;;;17.37;45.62;99038.28;4816300;29;20051;-84
2022/06/08 05:02:49;;;;;;;0.30;0.30;;;;;;;17.46;45.93;99033.84;4817103;29;20057;-82
2022/06/08 05:05:28;;;;;;;0.30;0.30;;;;;;;17.58;45.75;99033.44;4822267;29;20515;-86
2022/06/08 05:07:57;;;;;;;0.30;0.30;;;;;;;17.67;45.91;99024.34;4832668;29;20069;-84
2022/06/08 05:10:32;;;;;;;0.30;0.30;;;;;;;17.85;46.12;99028.25;4802322;29;20399;-87
2022/06/08 05:13:01;;;;;;;0.30;0.30;;;;;;;18.07;45.02;99035.88;4800248;29;20507;-84
2022/06/08 05:15:32;;;;;;;0.30;0.30;;;;;;;18.10;44.43;99038.00;4798025;29;20053;-85
2022/06/08 05:18:01;;;;;;;0.40;0.40;;;;;;;18.12;43.94;99035.78;4802666;29;20158;-86
2022/06/08 05:20:29;;;;;;;0.30;0.30;;;;;;;18.17;44.06;99037.66;4800567;29;20067;-86
2022/06/08 05:22:58;;;;;;;0.30;0.30;;;;;;;18.24;43.42;99031.84;4805301;29;20432;-86
2022/06/08 05:25:34;;;;;;;0.30;0.30;;;;;;;18.32;43.38;99042.09;4802668;29;20080;-86
2022/06/08 05:28:03;;;;;;;0.30;0.30;;;;;;;18.37;43.18;99042.03;4796254;29;20059;-85
2022/06/08 05:30:35;;;;;;;0.30;0.30;;;;;;;18.44;43.10;99049.88;4798168;29;20051;-86
2022/06/08 05:33:04;;;;;;;0.40;0.40;;;;;;;18.42;42.82;99041.94;4790757;29;20465;-86
2022/06/08 05:35:33;;;;;;;0.22;0.22;;;;;;;18.41;42.24;99041.16;4813819;29;20504;-83
2022/06/08 05:38:01;;;;;;;0.30;0.30;;;;;;;18.51;41.90;99047.56;4803433;29;20051;-84
2022/06/08 05:40:33;;;;;;;0.30;0.30;;;;;;;18.62;41.22;99052.59;4830670;29;20062;-85
2022/06/08 05:43:09;;;;;;;0.30;0.30;;;;;;;18.63;41.07;99051.50;4809089;29;20055;-85
2022/06/08 05:45:39;;;;;;;0.30;0.30;;;;;;;18.79;42.09;99054.03;4816085;29;20063;-85
2022/06/08 05:48:08;;;;;;;0.30;0.30;;;;;;;18.88;41.12;99051.41;4799147;29;20055;-86
2022/06/08 05:50:39;;;;;;;0.30;0.30;;;;;;;18.93;40.53;99049.41;4801173;29;20055;-86
2022/06/08 05:53:10;;;;;;;0.30;0.30;;;;;;;18.97;39.58;99042.22;4801494;29;20120;-87
2022/06/08 05:55:39;;;;;;;0.30;0.30;;;;;;;19.11;39.44;99052.41;4801046;29;20058;-87
2022/06/08 05:58:06;;;;;;;0.30;0.30;;;;;;;19.08;39.23;99050.25;4800616;29;20054;-86
2022/06/08 06:00:38;;;;;;;0.30;0.30;;;;;;;19.15;39.47;99056.16;4802133;29;20051;-86
2022/06/08 06:03:07;;;;;;;0.30;0.30;;;;;;;19.26;39.39;99061.13;4786988;29;20434;-87
2022/06/08 06:08:33;;;;;;;0.30;0.30;;;;;;;19.46;38.63;99059.16;4817383;29;20448;-86
2022/06/08 06:11:07;;;;;;;0.30;0.30;;;;;;;19.42;38.16;99064.44;4806999;29;20111;-85
2022/06/08 06:13:37;;;;;;;0.30;0.30;;;;;;;19.48;37.68;99057.75;4821773;29;20511;-85
2022/06/08 06:16:09;;;;;;;0.30;0.30;;;;;;;19.63;37.53;99064.06;4816093;29;20055;-86
2022/06/08 06:18:38;;;;;;;0.30;0.30;;;;;;;19.58;36.94;99058.69;4817048;29;20480;-84
2022/06/08 06:21:26;;;;;;;0.30;0.30;;;;;;;19.57;36.66;99048.81;4816841;29;20058;-85
2022/06/08 06:24:15;;;;;;;0.30;0.30;;;;;;;19.77;36.22;99058.59;4785511;30;20607;-86
2022/06/08 06:26:49;;;;;;;0.30;0.30;;;;;;;19.81;36.34;99054.97;4787110;29;20043;-85
2022/06/08 06:29:51;;;;;;;0.30;0.30;;;;;;;19.78;36.05;99061.06;4802348;29;20082;-86
2022/06/08 06:32:38;;;;;;;0.30;0.30;;;;;;;19.85;35.70;99061.47;4802470;29;20077;-85
2022/06/08 06:35:11;;;;;;;0.30;0.30;;;;;;;19.93;35.66;99057.19;4787210;29;20050;-86
2022/06/08 06:37:38;;;;;;;0.30;0.30;;;;;;;20.01;35.62;99069.38;4786783;29;20054;-85
2022/06/08 06:40:07;;;;;;;0.30;0.30;;;;;;;20.05;35.06;99053.94;4819442;23;20181;-85
2022/06/08 06:42:35;;;;;;;0.30;0.30;;;;;;;20.21;34.91;99073.63;4823353;29;20058;-85
2022/06/08 06:45:36;;;;;;;0.30;0.30;;;;;;;20.18;35.35;99069.56;4811347;29;20136;-86
2022/06/08 06:48:11;;;;;;;0.30;0.30;;;;;;;20.24;33.97;99062.84;4837535;29;20046;-86
2022/06/08 06:50:39;;;;;;;0.30;0.30;;;;;;;20.35;35.27;99066.97;4823049;29;20046;-86
2022/06/08 06:53:06;;;;;;;0.30;0.30;;;;;;;20.41;34.41;99064.13;4822906;29;20046;-86
2022/06/08 06:55:41;;;;;;;;;;;;;;;20.45;34.65;99056.91;4838583;29;20064;-87
2022/06/08 06:58:26;;;;;;;0.30;0.30;;;;;;;20.43;34.26;99057.22;4841460;29;20007;-85
2022/06/08 07:01:00;;;;;;;0.30;0.30;;;;;;;20.51;34.04;99050.22;4839566;29;20589;-87
2022/06/08 07:03:30;;;;;;;0.30;0.30;;;;;;;20.68;34.12;99061.34;4811076;29;20050;-86
2022/06/08 07:05:58;;;;;;;0.30;0.30;;;;;;;20.72;34.03;99067.81;4825317;29;20053;-87
2022/06/08 07:08:26;;;;;;;0.30;0.30;;;;;;;20.71;33.58;99068.97;4841512;29;20144;-84
2022/06/08 07:13:43;;;;;;;0.30;0.30;;;;;;;20.78;33.25;99082.22;4841561;29;20058;-85
2022/06/08 07:16:11;;;;;;;0.30;0.30;;;;;;;20.76;32.60;99074.31;4826599;29;20081;-86
2022/06/08 07:18:38;;;;;;;0.30;0.30;;;;;;;20.93;32.57;99079.13;4843933;29;20050;-85
2022/06/08 07:21:06;;;;;;;0.30;0.30;;;;;;;21.15;32.66;99072.81;4827248;29;20070;-86
2022/06/08 07:23:33;;;;;;;0.30;0.30;;;;;;;21.29;32.05;99074.69;4842019;29;20106;-86
2022/06/08 07:26:00;;;;;;;0.30;0.30;;;;;;;21.35;31.59;99070.69;4842523;29;20046;-85
2022/06/08 07:28:28;;;;;;;0.30;0.30;;;;;;;21.37;32.07;99068.41;4842249;29;20046;-84
2022/06/08 07:30:56;;;;;;;0.30;0.30;;;;;;;21.38;31.80;99067.31;4841184;29;20342;-86
2022/06/08 07:33:23;;;;;;;0.30;0.30;;;;;;;21.35;32.30;99065.22;4840849;29;20058;-85
2022/06/08 07:35:50;;;;;;;0.30;0.30;;;;;;;21.36;32.05;99066.81;4839761;29;20081;-84
2022/06/08 07:38:21;;;;;;;0.30;0.30;;;;;;;21.50;32.07;99075.81;4498337;29;10000548;-82
2022/06/08 07:40:48;;;;;;;0.30;0.30;;;;;;;21.57;30.81;99072.59;4837265;29;20105;-84
2022/06/08 07:43:16;;;;;;;0.30;0.30;;;;;;;21.67;31.70;99077.00;4835589;29;20050;-85
2022/06/08 07:45:43;;;;;;;0.30;0.30;;;;;;;21.76;31.63;99075.13;4834285;29;20118;-84
2022/06/08 07:50:56;;;;;;;0.40;0.40;;;;;;;21.92;30.28;99076.31;4825258;29;20157;-85
2022/06/08 07:53:50;;;;;;;0.40;0.40;;;;;;;22.01;31.07;99071.66;4829808;29;20050;-84
2022/06/08 07:56:37;;;;;;;0.40;0.40;;;;;;;22.35;31.13;99075.63;4819503;29;20065;-84
2022/06/08 07:59:04;;;;;;;0.40;0.40;;;;;;;22.55;30.45;99076.16;4821881;29;20056;-84
2022/06/08 08:01:35;;;;;;;0.40;0.40;;;;;;;22.47;30.52;99058.53;4828550;29;20059;-84
2022/06/08 08:04:02;;;;;;;0.30;0.30;;;;;;;22.65;30.31;99078.59;4820447;29;20059;-82
2022/06/08 08:06:29;;;;;;;0.40;0.40;;;;;;;22.59;30.68;99074.41;4837187;29;20046;-84
2022/06/08 08:09:00;;;;;;;0.40;0.40;;;;;;;22.89;29.83;99065.16;4831505;29;20066;-85
2022/06/08 08:11:27;;;;;;;0.40;0.40;;;;;;;23.29;28.85;99075.16;4817955;29;20050;-85
2022/06/08 08:13:55;;;;;;;0.40;0.40;;;;;;;23.49;28.72;99059.88;4834934;29;20054;-83
2022/06/08 08:16:22;;;;;;;0.40;0.40;;;;;;;23.53;28.50;99077.38;4849657;29;20064;-85
2022/06/08 08:18:50;;;;;;;0.35;0.35;;;;;;;23.40;29.57;99076.44;4830776;29;20051;-85
2022/06/08 08:21:17;;;;;;;0.20;0.20;;;;;;;22.70;27.87;99067.44;4829124;29;20061;-86
2022/06/08 08:23:44;;;;;;;0.40;0.40;;;;;;;22.49;27.76;99076.31;4833671;29;20054;-85
2022/06/08 08:26:12;;;;;;;0.40;0.40;;;;;;;22.45;28.24;99072.56;4828083;29;20534;-83
2022/06/08 08:28:39;;;;;;;0.30;0.30;;;;;;;22.81;28.46;99062.41;4822924;29;20058;-85
2022/06/08 08:31:06;;;;;;;0.40;0.40;;;;;;;23.43;29.01;99072.22;4823132;29;20119;-85
2022/06/08 08:33:35;;;;;;;0.32;0.32;;;;;;;23.83;29.05;99064.50;4824331;29;20214;-85
2022/06/08 08:36:03;;;;;;;0.40;0.40;;;;;;;24.27;27.57;99062.31;4824283;29;20046;-85
2022/06/08 08:38:30;;;;;;;0.40;0.40;;;;;;;24.35;26.88;99060.63;4823256;29;20111;-84
2022/06/08 08:41:00;;;;;;;0.40;0.40;;;;;;;24.47;26.40;99054.44;4822488;29;20111;-85
2022/06/08 08:43:37;;;;;;;0.40;0.40;;;;;;;24.60;25.69;99059.66;4822655;29;20371;-86
2022/06/08 08:46:19;;;;;;;0.40;0.40;;;;;;;24.81;26.26;99073.47;4822783;29;20059;-84
2022/06/08 08:48:49;;;;;;;0.40;0.40;;;;;;;24.94;24.81;99071.59;4825656;29;20081;-85
2022/06/08 08:51:23;;;;;;;0.40;0.40;;;;;;;25.05;25.47;99069.19;4824082;29;20054;-85
2022/06/08 08:54:09;;;;;;;0.40;0.40;;;;;;;25.20;24.48;99065.03;4824563;29;20114;-86
2022/06/08 08:56:39;;;;;;;0.40;0.40;;;;;;;25.47;24.30;99063.59;4822763;29;20062;-85
2022/06/08 08:59:18;;;;;;;0.40;0.40;;;;;;;25.98;24.44;99044.78;4822281;29;20082;-84
2022/06/08 09:01:51;;;;;;;0.40;0.40;;;;;;;25.82;24.67;99055.69;4823441;29;20537;-84
2022/06/08 09:04:29;;;;;;;0.40;0.40;;;;;;;25.89;24.24;99049.63;4793231;29;20192;-85
2022/06/08 09:07:16;;;;;;;0.40;0.40;;;;;;;26.19;22.99;99055.72;4823739;29;20054;-85
2022/06/08 09:09:45;;;;;;;0.40;0.40;;;;;;;26.30;23.15;99061.56;4823463;29;20054;-85
2022/06/08 09:12:15;;;;;;;0.40;0.40;;;;;;;26.67;23.37;99051.25;4823734;29;20371;-84
2022/06/08 09:14:59;;;;;;;0.40;0.40;;;;;;;26.97;23.18;99045.41;4822870;29;20054;-85
2022/06/08 09:17:32;;;;;;;0.40;0.40;;;;;;;27.03;22.10;99050.31;4823360;29;20054;-85
2022/06/08 09:27:57;;;;;;;0.40;0.40;;;;;;;25.51;22.23;99048.75;4785846;30;20055;-85
2022/06/08 09:30:48;;;;;;;0.50;0.50;;;;;;;26.01;21.96;99054.34;4800797;29;20054;-85
2022/06/08 09:33:25;;;;;;;0.40;0.40;;;;;;;26.14;20.96;99048.47;4786853;29;20423;-84
2022/06/08 09:35:56;;;;;;;0.40;0.40;;;;;;;26.33;20.74;99047.03;4787621;29;20054;-84
2022/06/08 09:38:25;;;;;;;0.40;0.40;;;;;;;26.33;20.49;99022.97;4802327;29;20082;-84
2022/06/08 09:41:14;;;;;;;0.50;0.50;;;;;;;26.62;21.00;99034.91;4801408;29;20416;-84
2022/06/08 09:44:09;;;;;;;0.40;0.40;;;;;;;27.53;21.00;99037.03;4801191;29;20344;-84
2022/06/08 09:53:19;;;;;;;0.40;0.40;;;;;;;28.58;19.34;99031.97;4789022;29;20111;-85
2022/06/08 09:56:12;;;;;;;0.40;0.40;;;;;;;28.31;19.56;99046.44;4787281;30;20099;-84
2022/06/08 09:58:56;;;;;;;0.40;0.40;;;;;;;28.51;19.40;99035.38;4799927;29;20059;-84
2022/06/08 10:01:53;;;;;;;0.40;0.40;;;;;;;29.05;18.62;99044.84;4800873;29;20089;-84
2022/06/08 10:05:23;;;;;;;0.40;0.40;;;;;;;28.86;18.60;99018.66;4799493;29;20094;-83
2022/06/08 10:08:23;;;;;;;0.40;0.40;;;;;;;28.85;18.33;99028.16;4801306;29;20473;-85
2022/06/08 10:14:14;;;;;;;0.40;0.40;;;;;;;28.66;18.62;99029.00;4786872;30;20059;-84
2022/06/08 10:16:47;;;;;;;0.40;0.40;;;;;;;28.98;18.16;99022.47;4800054;29;20547;-84
2022/06/08 10:19:23;;;;;;;0.30;0.30;;;;;;;29.06;18.22;99030.59;4786577;29;20093;-85
2022/06/08 10:21:51;;;;;;;0.40;0.40;;;;;;;28.64;18.48;99025.78;4803560;29;20473;-83
2022/06/08 10:24:24;;;;;;;0.40;0.40;;;;;;;28.12;18.75;99009.53;4787496;29;20089;-84
2022/06/08 10:27:02;;;;;;;0.40;0.40;;;;;;;28.63;19.29;99020.56;4801978;29;20448;-84
2022/06/08 10:29:42;;;;;;;0.40;0.40;;;;;;;29.86;17.89;99018.91;4800909;29;20134;-83
2022/06/08 10:32:25;;;;;;;0.40;0.40;;;;;;;30.53;17.34;99018.28;4800476;29;20065;-85
2022/06/08 10:34:54;;;;;;;0.40;0.40;;;;;;;29.86;17.36;99021.69;4771316;30;20055;-84
2022/06/08 10:37:39;;;;;;;0.40;0.40;;;;;;;29.54;17.27;99019.94;4786793;29;20520;-85
2022/06/08 10:40:19;;;;;;;0.50;0.50;;;;;;;30.10;18.28;99014.88;4800229;29;20055;-85
2022/06/08 10:42:46;;;;;;;0.40;0.40;;;;;;;30.98;16.56;99016.47;4786040;29;20084;-83
2022/06/08 10:45:23;;;;;;;0.30;0.30;;;;;;;31.62;16.09;99022.69;4799597;29;20059;-85
2022/06/08 10:48:06;;;;;;;0.40;0.40;;;;;;;31.98;16.45;99022.19;4562553;29;10001753;-81
2022/06/08 10:50:39;;;;;;;0.30;0.30;;;;;;;31.93;15.06;99007.44;4779383;29;20368;-83
2022/06/08 10:56:35;;;;;;;0.40;0.40;;;;;;;31.84;16.55;99008.91;4781482;29;20054;-81
2022/06/08 10:59:08;;;;;;;0.40;0.40;;;;;;;32.27;16.03;99012.03;4774895;30;20052;-83
2022/06/08 11:01:49;;;;;;;0.40;0.40;;;;;;;31.89;15.78;99006.56;4763921;30;20524;-82
2022/06/08 11:04:59;;;;;;;0.30;0.30;;;;;;;32.11;15.68;98996.38;4795442;29;20055;-83
2022/06/08 11:07:27;;;;;;;0.40;0.40;;;;;;;32.03;15.57;99002.28;4767272;29;20071;-83
2022/06/08 11:09:58;;;;;;;0.40;0.40;;;;;;;32.43;15.27;99006.91;4795921;29;20146;-82
2022/06/08 11:12:52;;;;;;;0.40;0.40;;;;;;;33.20;15.06;98998.44;4783816;29;20062;-83
2022/06/08 11:15:35;;;;;;;0.38;0.38;;;;;;;33.57;14.79;98988.91;4798951;29;20431;-83
2022/06/08 11:18:31;;;;;;;0.40;0.40;;;;;;;33.37;14.62;98991.25;4782605;29;20055;-82
2022/06/08 11:21:18;;;;;;;0.30;0.30;;;;;;;33.23;15.24;98997.66;4781824;30;20082;-85
2022/06/08 11:24:02;;;;;;;0.32;0.32;;;;;;;33.27;14.87;98990.03;4783039;29;20069;-83
2022/06/08 11:26:38;;;;;;;0.30;0.30;;;;;;;34.18;13.99;98997.25;4797228;29;20062;-85
2022/06/08 11:29:17;;;;;;;0.35;0.35;;;;;;;34.11;14.05;98995.28;4784767;30;20079;-85
2022/06/08 11:31:44;;;;;;;0.40;0.40;;;;;;;33.11;14.56;98992.44;4783221;29;20063;-85
2022/06/08 11:35:19;;;;;;;0.40;0.40;;;;;;;32.31;15.55;98990.50;4787031;29;20158;-84
2022/06/08 11:38:18;;;;;;;0.35;0.35;;;;;;;33.75;14.92;98989.69;4777293;29;20533;-83
2022/06/08 11:40:46;;;;;;;0.40;0.40;;;;;;;34.68;15.13;98980.28;4787186;30;20071;-84
2022/06/08 11:43:13;;;;;;;0.30;0.30;;;;;;;34.61;15.01;98977.50;4783821;30;20047;-84
2022/06/08 11:45:52;;;;;;;0.40;0.40;;;;;;;34.43;14.40;98985.97;4775588;29;20644;-84
2022/06/08 11:48:23;;;;;;;0.40;0.40;;;;;;;33.16;15.31;98987.25;4778376;30;20062;-83
2022/06/08 11:51:03;;;;;;;0.30;0.30;;;;;;;32.80;15.88;98992.72;4766007;30;20112;-84
2022/06/08 11:53:31;;;;;;;0.40;0.40;;;;;;;31.94;15.64;98995.06;4778666;30;20059;-84
2022/06/08 11:56:15;;;;;;;0.40;0.40;;;;;;;31.91;16.09;98987.44;4786158;30;20137;-84
2022/06/08 11:58:49;;;;;;;0.40;0.40;;;;;;;33.03;15.79;98986.81;4786256;30;20051;-84
2022/06/08 12:01:44;;;;;;;0.40;0.40;;;;;;;32.86;15.89;98983.97;4739406;30;20087;-82
2022/06/08 12:04:16;;;;;;;0.40;0.40;;;;;;;32.99;15.50;98982.38;4765177;30;20059;-84
2022/06/08 12:06:44;;;;;;;0.30;0.30;;;;;;;34.06;15.46;98976.06;4772820;30;20055;-83
2022/06/08 12:09:20;;;;;;;0.40;0.40;;;;;;;34.61;14.21;98983.91;4785913;30;20404;-84
2022/06/08 12:11:55;;;;;;;0.40;0.40;;;;;;;34.68;14.68;98978.28;4780036;30;20085;-82
2022/06/08 12:14:31;;;;;;;0.38;0.38;;;;;;;35.06;13.99;98974.88;4777495;29;20060;-82
2022/06/08 12:17:20;;;;;;;0.40;0.40;;;;;;;35.53;13.73;98973.34;4786032;30;20134;-83
2022/06/08 12:19:55;;;;;;;0.32;0.32;;;;;;;35.48;14.21;98970.97;4786756;30;20055;-83
2022/06/08 12:22:24;;;;;;;0.40;0.40;;;;;;;35.85;13.94;98968.66;4802109;29;20066;-84
2022/06/08 12:25:06;;;;;;;0.30;0.30;;;;;;;35.59;13.91;98962.50;4802337;29;20138;-84
2022/06/08 12:28:11;;;;;;;0.40;0.40;;;;;;;35.59;13.71;98965.28;4788334;30;20477;-85
2022/06/08 12:30:50;;;;;;;0.30;0.30;;;;;;;34.82;13.80;98966.22;4783211;30;20086;-84
2022/06/08 12:33:18;;;;;;;0.40;0.40;;;;;;;34.05;14.31;98955.66;4789361;29;20120;-83
2022/06/08 12:35:58;;;;;;;0.30;0.30;;;;;;;34.51;14.62;98957.53;4789201;29;20051;-82
2022/06/08 12:38:29;;;;;;;0.30;0.30;;;;;;;35.71;13.41;98947.16;4788801;29;20089;-83
2022/06/08 12:41:14;;;;;;;0.30;0.30;;;;;;;36.02;13.40;98960.06;4802147;29;20052;-83
2022/06/08 12:44:04;;;;;;;0.30;0.30;;;;;;;35.84;13.53;98956.63;4784650;30;20063;-82
2022/06/08 12:46:34;;;;;;;0.30;0.30;;;;;;;35.51;13.74;98958.91;4779519;30;20062;-84